Time;durP1;ratioP1;P1;durP2;ratioP2;P2;SDS_P1;SDS_P2;PMS_P1;PMS_P2;Temp;Humidity;BMP_temperature;BMP_pressure;BME280_temperature;BME280_humidity;BME280_pressure;Samples;Min_cycle;Max_cycle;Signal;HPM_P1;HPM_P2
2021/06/13 00:00:11;;;;;;;8.27;3.83;;;13.80;99.90;;;;;;5044765;28;20239;-70
2021/06/13 00:02:42;;;;;;;10.30;3.57;;;13.90;99.90;;;;;;5045630;28;21871;-70
2021/06/13 00:05:14;;;;;;;14.10;3.90;;;13.90;99.90;;;;;;5047023;28;20251;-70
2021/06/13 00:07:42;;;;;;;8.90;3.90;;;13.90;99.90;;;;;;5046297;28;20284;-70
2021/06/13 00:10:11;;;;;;;10.23;3.40;;;13.80;99.90;;;;;;5045044;28;20250;-70
2021/06/13 00:12:40;;;;;;;12.93;4.43;;;13.80;99.90;;;;;;5045717;28;20239;-70
2021/06/13 00:15:18;;;;;;;9.04;3.97;;;13.80;99.90;;;;;;2524825;28;10003413;-70
2021/06/13 00:17:47;;;;;;;12.33;4.17;;;13.70;99.90;;;;;;3295482;28;10001541;-69
2021/06/13 00:20:20;;;;;;;11.40;4.10;;;13.70;99.90;;;;;;5046799;28;20477;-70
2021/06/13 00:22:49;;;;;;;10.07;4.20;;;13.80;99.90;;;;;;5045823;28;20301;-71
2021/06/13 00:25:18;;;;;;;14.80;4.60;;;13.80;99.90;;;;;;5047079;28;20242;-71
2021/06/13 00:27:45;;;;;;;10.00;4.40;;;13.80;99.90;;;;;;5045795;28;20701;-71
2021/06/13 00:30:14;;;;;;;11.13;3.77;;;13.80;99.90;;;;;;5046780;28;20238;-70
2021/06/13 00:32:42;;;;;;;11.87;4.00;;;13.80;99.90;;;;;;5047831;28;20342;-70
2021/06/13 00:35:11;;;;;;;9.27;3.90;;;13.90;99.90;;;;;;5050063;28;20245;-70
2021/06/13 00:37:40;;;;;;;10.00;3.40;;;13.90;99.90;;;;;;5049661;28;20297;-69
2021/06/13 00:40:09;;;;;;;9.77;4.17;;;13.90;99.90;;;;;;5050284;28;20243;-70
2021/06/13 00:42:43;;;;;;;12.13;4.17;;;13.90;99.90;;;;;;5064789;28;20284;-70
2021/06/13 00:45:11;;;;;;;8.10;3.60;;;13.90;99.90;;;;;;5049896;28;20235;-70
2021/06/13 00:47:40;;;;;;;11.83;3.90;;;13.90;99.90;;;;;;5048957;28;20243;-70
2021/06/13 00:50:11;;;;;;;13.03;3.70;;;13.80;99.90;;;;;;5049896;28;20593;-70
2021/06/13 00:52:40;;;;;;;7.77;3.03;;;13.80;99.90;;;;;;5048981;28;20234;-70
2021/06/13 00:55:09;;;;;;;13.50;4.10;;;13.90;99.90;;;;;;5064845;28;20249;-70
2021/06/13 00:57:38;;;;;;;9.03;3.37;;;14.00;99.90;;;;;;5064662;28;20242;-70
2021/06/13 01:00:07;;;;;;;15.30;4.10;;;14.00;99.90;;;;;;5049866;28;20231;-70
2021/06/13 01:02:35;;;;;;;10.70;3.67;;;13.90;99.90;;;;;;5048876;28;20234;-70
2021/06/13 01:05:04;;;;;;;8.80;4.03;;;13.90;99.90;;;;;;5048122;28;20240;-70
2021/06/13 01:07:39;;;;;;;8.67;3.73;;;13.90;99.90;;;;;;5047588;28;20231;-70
2021/06/13 01:10:13;;;;;;;8.40;3.50;;;13.90;99.90;;;;;;5064892;28;20242;-69
2021/06/13 01:12:47;;;;;;;8.67;3.60;;;13.80;99.90;;;;;;5048532;28;20230;-70
2021/06/13 01:15:18;;;;;;;12.17;4.37;;;13.70;99.90;;;;;;5049067;28;20787;-71
2021/06/13 01:17:55;;;;;;;10.30;3.43;;;13.60;99.90;;;;;;5047432;28;20261;-70
2021/06/13 01:20:25;;;;;;;10.60;4.23;;;13.60;99.90;;;;;;5064286;28;20232;-69
2021/06/13 01:23:10;;;;;;;8.87;3.80;;;13.50;99.90;;;;;;5064205;28;20235;-70
2021/06/13 01:26:05;;;;;;;8.10;3.53;;;13.50;99.90;;;;;;5047811;28;20603;-70
2021/06/13 01:29:03;;;;;;;8.57;3.50;;;13.60;99.90;;;;;;5046758;28;20490;-70
2021/06/13 01:31:37;;;;;;;10.97;3.77;;;13.60;99.90;;;;;;5046650;28;20249;-70
2021/06/13 01:34:12;;;;;;;8.40;3.40;;;13.60;99.90;;;;;;5048851;28;20248;-70
2021/06/13 01:36:45;;;;;;;7.00;3.00;;;13.60;99.90;;;;;;5047825;28;20309;-70
2021/06/13 01:39:17;;;;;;;12.20;3.97;;;13.60;99.90;;;;;;5063546;28;20239;-70
2021/06/13 01:41:46;;;;;;;11.83;3.73;;;13.70;99.90;;;;;;5048791;28;20605;-70
2021/06/13 01:44:18;;;;;;;9.70;4.03;;;13.70;99.90;;;;;;5047393;28;20243;-70
2021/06/13 01:46:49;;;;;;;9.60;3.50;;;13.70;99.90;;;;;;5046484;28;20290;-70
2021/06/13 01:49:19;;;;;;;5.83;3.13;;;13.70;99.90;;;;;;5048753;28;20274;-70
2021/06/13 01:51:48;;;;;;;10.53;3.30;;;13.70;99.90;;;;;;5047043;28;20549;-70
2021/06/13 01:54:20;;;;;;;9.37;3.50;;;13.70;99.90;;;;;;5047323;28;20235;-71
2021/06/13 01:56:51;;;;;;;11.63;3.93;;;13.60;99.90;;;;;;5048563;28;20250;-69
2021/06/13 01:59:29;;;;;;;8.63;3.63;;;13.70;99.90;;;;;;5046488;28;20685;-70
2021/06/13 02:02:04;;;;;;;8.90;3.70;;;13.70;99.90;;;;;;5047188;28;20244;-70
2021/06/13 02:04:39;;;;;;;10.10;3.37;;;13.80;99.90;;;;;;5063566;28;20238;-70
2021/06/13 02:07:11;;;;;;;8.93;3.40;;;13.80;99.90;;;;;;5048255;28;20249;-69
2021/06/13 02:09:40;;;;;;;13.30;4.20;;;13.80;99.90;;;;;;5048079;28;20262;-70
2021/06/13 02:12:10;;;;;;;9.93;3.70;;;13.70;99.90;;;;;;5046275;28;20243;-70
2021/06/13 02:14:51;;;;;;;11.47;3.87;;;13.70;99.90;;;;;;5063454;28;20325;-70
2021/06/13 02:17:28;;;;;;;11.53;3.77;;;13.60;99.90;;;;;;5047654;28;20703;-69
2021/06/13 02:20:01;;;;;;;11.50;3.20;;;13.60;99.90;;;;;;5046908;28;20331;-69
2021/06/13 02:22:34;;;;;;;10.27;3.37;;;13.60;99.90;;;;;;5053124;28;20320;-70
2021/06/13 02:25:04;;;;;;;9.50;3.20;;;13.70;99.90;;;;;;5063600;28;20242;-70
2021/06/13 02:27:34;;;;;;;10.10;3.43;;;13.60;99.90;;;;;;5048426;28;20228;-70
2021/06/13 02:30:09;;;;;;;10.50;3.93;;;13.70;99.90;;;;;;5046883;28;20324;-71
2021/06/13 02:32:42;;;;;;;10.07;4.00;;;13.70;99.90;;;;;;5047416;28;20243;-70
2021/06/13 02:35:15;;;;;;;11.87;4.00;;;13.70;99.90;;;;;;5046524;28;20238;-70
2021/06/13 02:37:47;;;;;;;12.53;3.83;;;13.80;99.90;;;;;;5047693;28;20235;-69
2021/06/13 02:40:24;;;;;;;11.23;3.97;;;13.70;99.90;;;;;;5045852;28;20285;-70
2021/06/13 02:42:54;;;;;;;10.47;3.50;;;13.70;99.90;;;;;;5061822;28;20242;-70
2021/06/13 02:45:25;;;;;;;15.13;4.07;;;13.60;99.90;;;;;;5047892;28;20238;-70
2021/06/13 02:47:55;;;;;;;10.67;4.17;;;13.60;99.90;;;;;;5047488;28;20906;-71
2021/06/13 02:50:27;;;;;;;10.03;3.70;;;13.60;99.90;;;;;;5062767;28;20315;-70
2021/06/13 02:53:02;;;;;;;10.10;3.60;;;13.60;99.90;;;;;;5046798;28;20312;-69
2021/06/13 02:55:39;;;;;;;9.40;3.00;;;13.50;99.90;;;;;;5045728;28;20249;-70
2021/06/13 02:58:19;;;;;;;10.67;3.60;;;13.70;99.90;;;;;;5047406;28;20249;-70
2021/06/13 03:00:51;;;;;;;16.27;4.70;;;13.60;99.90;;;;;;5062833;28;20246;-69
2021/06/13 03:03:22;;;;;;;10.00;3.73;;;13.50;99.90;;;;;;5045767;28;20238;-71
2021/06/13 03:05:51;;;;;;;12.20;4.00;;;13.60;99.90;;;;;;5062843;28;20254;-70
2021/06/13 03:08:20;;;;;;;14.47;3.90;;;13.50;99.90;;;;;;5046908;28;20239;-70
2021/06/13 03:10:51;;;;;;;13.30;4.13;;;13.50;99.90;;;;;;5045776;28;20706;-70
2021/06/13 03:13:25;;;;;;;11.23;3.27;;;13.50;99.90;;;;;;5050005;28;20512;-70
2021/06/13 03:15:57;;;;;;;10.73;3.50;;;13.50;99.90;;;;;;5047168;28;20241;-70
2021/06/13 03:18:26;;;;;;;12.27;3.70;;;13.60;99.90;;;;;;5056937;28;20230;-70
2021/06/13 03:20:56;;;;;;;10.57;3.87;;;13.60;99.90;;;;;;5045837;28;20240;-70
2021/06/13 03:23:28;;;;;;;11.07;3.60;;;13.60;99.90;;;;;;5046734;28;20234;-70
2021/06/13 03:25:57;;;;;;;10.40;3.40;;;13.60;99.90;;;;;;5046017;28;20592;-69
2021/06/13 03:28:26;;;;;;;12.60;3.13;;;13.70;99.90;;;;;;5061256;28;20277;-70
2021/06/13 03:30:56;;;;;;;11.17;3.33;;;13.70;99.90;;;;;;5047434;28;20235;-72
2021/06/13 03:33:26;;;;;;;13.57;3.90;;;13.70;99.90;;;;;;5045484;28;20387;-70
2021/06/13 03:35:56;;;;;;;9.67;3.43;;;13.70;99.90;;;;;;5046061;28;20250;-70
2021/06/13 03:38:25;;;;;;;9.07;3.17;;;13.70;99.90;;;;;;5046648;28;20319;-69
2021/06/13 03:40:55;;;;;;;8.00;3.73;;;13.90;99.90;;;;;;5062166;28;20776;-70
2021/06/13 03:43:24;;;;;;;10.73;3.80;;;13.80;99.90;;;;;;5046139;28;20242;-70
2021/06/13 03:45:52;;;;;;;9.83;3.47;;;13.90;99.90;;;;;;5046893;28;20239;-70
2021/06/13 03:48:23;;;;;;;10.60;3.77;;;14.00;99.90;;;;;;5046919;28;20652;-70
2021/06/13 03:50:51;;;;;;;10.27;3.93;;;13.90;99.90;;;;;;5046999;28;20244;-69
2021/06/13 03:53:24;;;;;;;9.83;3.67;;;13.90;99.90;;;;;;5046392;28;20243;-70
2021/06/13 03:55:53;;;;;;;11.47;3.73;;;14.00;99.90;;;;;;5046990;28;20312;-70
2021/06/13 03:58:25;;;;;;;12.57;3.87;;;14.00;99.90;;;;;;5046596;28;20251;-68
2021/06/13 04:00:55;;;;;;;10.13;3.80;;;14.00;99.90;;;;;;5047178;28;20309;-70
2021/06/13 04:03:28;;;;;;;11.60;3.50;;;14.00;99.90;;;;;;5046781;28;20263;-70
2021/06/13 04:05:59;;;;;;;12.33;3.60;;;14.00;99.90;;;;;;5047178;28;20703;-71
2021/06/13 04:08:27;;;;;;;12.53;3.63;;;13.90;99.90;;;;;;5049389;28;20239;-70
2021/06/13 04:10:56;;;;;;;12.43;3.70;;;13.90;99.90;;;;;;5050550;28;20596;-70
2021/06/13 04:13:24;;;;;;;13.33;3.83;;;13.90;99.90;;;;;;5049518;28;20244;-70
2021/06/13 04:15:53;;;;;;;12.03;4.50;;;13.90;99.90;;;;;;5050692;28;20236;-70
2021/06/13 04:18:23;;;;;;;8.10;3.33;;;13.90;99.90;;;;;;5049731;28;20277;-69
2021/06/13 04:20:53;;;;;;;6.97;2.90;;;14.10;99.90;;;;;;5048518;28;20232;-70
2021/06/13 04:23:22;;;;;;;11.17;3.30;;;14.10;99.90;;;;;;5048797;28;20240;-69
2021/06/13 04:25:50;;;;;;;11.23;3.60;;;14.20;99.90;;;;;;5050071;28;20239;-70
2021/06/13 04:28:19;;;;;;;11.17;3.50;;;14.10;99.90;;;;;;5049608;28;20244;-69
2021/06/13 04:31:06;;;;;;;13.43;3.80;;;14.20;99.90;;;;;;5064344;28;20234;-71
2021/06/13 04:33:35;;;;;;;11.67;3.97;;;14.10;99.90;;;;;;5047575;28;20235;-70
2021/06/13 04:36:06;;;;;;;9.53;3.53;;;14.10;99.90;;;;;;5049888;28;20314;-70
2021/06/13 04:38:34;;;;;;;10.77;3.50;;;14.10;99.90;;;;;;5049087;28;20235;-70
2021/06/13 04:41:04;;;;;;;11.23;3.77;;;14.10;99.90;;;;;;5046641;28;20227;-70
2021/06/13 04:43:33;;;;;;;13.67;3.57;;;14.10;99.90;;;;;;5048849;28;20234;-70
2021/06/13 04:46:05;;;;;;;11.40;3.90;;;14.10;99.90;;;;;;5047038;28;20236;-69
2021/06/13 04:48:33;;;;;;;12.27;3.73;;;14.10;99.90;;;;;;5048658;28;20232;-69
2021/06/13 04:51:04;;;;;;;10.73;3.80;;;14.00;99.90;;;;;;5048535;28;20571;-71
2021/06/13 04:54:18;;;;;;;12.80;3.73;;;14.00;99.90;;;;;;5049051;28;20232;-70
2021/06/13 04:57:06;;;;;;;10.10;3.53;;;14.00;99.90;;;;;;5047056;28;20259;-70
2021/06/13 04:59:34;;;;;;;6.47;3.60;;;14.00;99.90;;;;;;5047490;28;20231;-70
2021/06/13 05:02:03;;;;;;;13.23;4.23;;;14.00;99.90;;;;;;5069477;28;20742;-70
2021/06/13 05:04:31;;;;;;;9.10;3.67;;;14.00;99.90;;;;;;5048570;28;20228;-70
2021/06/13 05:07:03;;;;;;;7.53;3.73;;;14.00;99.90;;;;;;5048958;28;20590;-69
2021/06/13 05:09:31;;;;;;;11.97;4.00;;;14.00;99.90;;;;;;5048455;28;20231;-70
2021/06/13 05:12:00;;;;;;;9.60;3.50;;;14.00;99.90;;;;;;5048741;28;20599;-70
2021/06/13 05:14:28;;;;;;;10.50;4.10;;;14.10;99.90;;;;;;5048791;28;20942;-69
2021/06/13 05:16:56;;;;;;;13.17;4.00;;;14.00;99.90;;;;;;5049635;28;20232;-70
2021/06/13 05:19:24;;;;;;;8.57;3.53;;;14.10;99.90;;;;;;5048873;28;20269;-70
2021/06/13 05:21:52;;;;;;;12.53;4.10;;;14.20;99.90;;;;;;5048562;28;20240;-70
2021/06/13 05:24:22;;;;;;;10.77;3.83;;;14.20;99.90;;;;;;5049640;28;20271;-70
2021/06/13 05:26:50;;;;;;;11.70;4.17;;;14.20;99.90;;;;;;5049330;28;20247;-69
2021/06/13 05:29:18;;;;;;;9.87;3.63;;;14.30;99.90;;;;;;5048210;28;20297;-70
2021/06/13 05:31:46;;;;;;;9.83;4.07;;;14.20;99.90;;;;;;5047925;28;20232;-70
2021/06/13 05:34:14;;;;;;;10.77;4.10;;;14.30;99.90;;;;;;5038997;28;20601;-71
2021/06/13 05:36:42;;;;;;;10.73;4.67;;;14.30;99.90;;;;;;5048571;28;20780;-71
2021/06/13 05:39:10;;;;;;;10.50;3.93;;;14.30;99.90;;;;;;5048425;28;20243;-70
2021/06/13 05:41:40;;;;;;;10.33;4.53;;;14.30;99.90;;;;;;5048210;28;20258;-70
2021/06/13 05:44:08;;;;;;;15.73;4.33;;;14.40;99.90;;;;;;5043612;28;20710;-69
2021/06/13 05:46:36;;;;;;;12.07;4.50;;;14.40;99.90;;;;;;5048270;28;20234;-69
2021/06/13 05:49:04;;;;;;;10.73;4.10;;;14.50;99.90;;;;;;5044651;28;20440;-70
2021/06/13 05:51:32;;;;;;;13.00;4.27;;;14.60;99.90;;;;;;5044433;28;20234;-70
2021/06/13 05:54:00;;;;;;;8.17;3.80;;;14.70;99.90;;;;;;5047888;28;20663;-70
2021/06/13 05:56:29;;;;;;;14.33;3.83;;;14.90;99.90;;;;;;5048855;28;20232;-70
2021/06/13 05:58:59;;;;;;;10.50;4.07;;;15.00;99.90;;;;;;5048184;28;20331;-70
2021/06/13 06:01:27;;;;;;;10.40;4.30;;;15.00;99.90;;;;;;5047840;28;20244;-70
2021/06/13 06:03:56;;;;;;;12.50;4.20;;;15.00;99.90;;;;;;5047583;28;20263;-70
2021/06/13 06:06:24;;;;;;;10.10;4.37;;;15.10;99.90;;;;;;5045364;28;20773;-71
2021/06/13 06:08:52;;;;;;;8.43;4.23;;;15.00;99.90;;;;;;5047545;28;20653;-70
2021/06/13 06:11:20;;;;;;;11.10;4.23;;;15.00;99.90;;;;;;5047608;28;20696;-70
2021/06/13 06:13:53;;;;;;;14.53;4.43;;;14.90;99.90;;;;;;5047111;28;20238;-70
2021/06/13 06:16:23;;;;;;;10.57;4.17;;;14.90;99.90;;;;;;5047950;28;20243;-70
2021/06/13 06:18:51;;;;;;;13.03;4.30;;;14.80;99.90;;;;;;5047346;28;20251;-70
2021/06/13 06:21:21;;;;;;;12.63;4.03;;;14.80;99.90;;;;;;5047313;28;20243;-70
2021/06/13 06:23:49;;;;;;;10.10;4.50;;;14.70;99.90;;;;;;5047458;28;20228;-70
2021/06/13 06:26:19;;;;;;;13.83;4.13;;;14.70;99.90;;;;;;5046742;28;20594;-70
2021/06/13 06:28:48;;;;;;;13.47;4.40;;;14.80;99.90;;;;;;5045662;28;20235;-70
2021/06/13 06:31:16;;;;;;;9.03;3.80;;;14.80;99.90;;;;;;5045614;28;20244;-70
2021/06/13 06:33:46;;;;;;;12.20;4.70;;;14.90;99.90;;;;;;5045430;28;20602;-70
2021/06/13 06:36:14;;;;;;;11.90;4.13;;;15.00;99.90;;;;;;5046076;28;20235;-70
2021/06/13 06:38:42;;;;;;;11.93;4.30;;;15.10;99.90;;;;;;5045405;28;20239;-71
2021/06/13 06:41:10;;;;;;;9.03;4.00;;;15.20;99.90;;;;;;5045865;28;20243;-70
2021/06/13 06:43:39;;;;;;;11.50;4.20;;;15.30;99.90;;;;;;5060857;28;20761;-70
2021/06/13 06:46:07;;;;;;;10.40;4.00;;;15.40;99.90;;;;;;5045993;28;20268;-69
2021/06/13 06:48:35;;;;;;;12.37;3.97;;;15.50;99.90;;;;;;5045655;28;20246;-70
2021/06/13 06:51:05;;;;;;;9.77;3.97;;;15.70;99.90;;;;;;5043034;28;20623;-70
2021/06/13 06:53:33;;;;;;;13.60;4.37;;;15.70;99.90;;;;;;5044340;28;20478;-70
2021/06/13 06:56:02;;;;;;;11.03;4.43;;;15.80;99.90;;;;;;5043962;28;20231;-70
2021/06/13 06:58:30;;;;;;;7.77;4.27;;;15.80;99.90;;;;;;5045434;28;20236;-70
2021/06/13 07:00:58;;;;;;;13.20;4.13;;;15.80;99.90;;;;;;5045513;28;20707;-70
2021/06/13 07:03:26;;;;;;;11.17;3.77;;;15.90;99.90;;;;;;5042867;28;20220;-70
2021/06/13 07:05:55;;;;;;;10.83;3.90;;;15.90;99.90;;;;;;5044977;28;20242;-70
2021/06/13 07:08:24;;;;;;;9.20;4.13;;;15.80;99.90;;;;;;5044661;28;20228;-70
2021/06/13 07:10:52;;;;;;;8.10;4.00;;;15.80;99.90;;;;;;5045575;28;20268;-70
2021/06/13 07:13:20;;;;;;;11.30;3.90;;;15.80;99.90;;;;;;5045027;28;20243;-70
2021/06/13 07:15:49;;;;;;;9.53;4.00;;;15.80;99.90;;;;;;5045466;28;20293;-70
2021/06/13 07:18:17;;;;;;;8.80;4.33;;;15.90;99.90;;;;;;5045113;28;20239;-71
2021/06/13 07:20:45;;;;;;;9.20;3.70;;;16.00;99.90;;;;;;5045372;28;20639;-70
2021/06/13 07:23:14;;;;;;;9.13;3.30;;;15.90;99.90;;;;;;5043825;28;20247;-71
2021/06/13 07:25:43;;;;;;;8.40;3.87;;;16.00;99.90;;;;;;5045007;28;20415;-70
2021/06/13 07:28:11;;;;;;;8.13;3.77;;;16.20;99.90;;;;;;5044363;28;20696;-71
2021/06/13 07:30:40;;;;;;;8.63;4.10;;;16.30;99.90;;;;;;5041574;28;20235;-72
2021/06/13 07:33:08;;;;;;;9.00;4.00;;;16.40;99.90;;;;;;5039620;28;20256;-72
2021/06/13 07:35:37;;;;;;;8.23;4.00;;;16.70;99.90;;;;;;5028172;28;20234;-71
2021/06/13 07:38:06;;;;;;;9.63;4.47;;;16.80;99.90;;;;;;5043453;28;20707;-70
2021/06/13 07:40:34;;;;;;;9.77;3.77;;;16.70;99.90;;;;;;5044115;28;20238;-71
2021/06/13 07:43:04;;;;;;;9.23;3.80;;;16.90;99.90;;;;;;5047279;28;20775;-71
2021/06/13 07:45:33;;;;;;;10.53;3.90;;;16.90;99.90;;;;;;5050231;28;20234;-71
2021/06/13 07:48:05;;;;;;;10.97;4.10;;;17.00;99.90;;;;;;5049157;28;20323;-71
2021/06/13 07:50:34;;;;;;;9.17;3.93;;;17.20;99.90;;;;;;5050446;28;20235;-72
2021/06/13 07:53:03;;;;;;;7.50;3.80;;;17.20;99.90;;;;;;5050597;28;20243;-71
2021/06/13 07:55:32;;;;;;;8.60;3.87;;;17.10;99.90;;;;;;5050444;28;20231;-71
2021/06/13 07:58:00;;;;;;;10.43;4.50;;;17.10;99.90;;;;;;5050485;28;20240;-71
2021/06/13 08:00:29;;;;;;;10.30;4.37;;;17.10;99.90;;;;;;5050600;28;20232;-71
2021/06/13 08:02:57;;;;;;;11.97;4.40;;;17.20;99.90;;;;;;5050522;28;20244;-72
2021/06/13 08:05:27;;;;;;;10.70;3.73;;;17.10;99.90;;;;;;5050378;28;20339;-71
2021/06/13 08:07:57;;;;;;;8.83;4.47;;;17.00;99.90;;;;;;5050292;28;20244;-71
2021/06/13 08:10:27;;;;;;;7.53;3.80;;;17.00;99.90;;;;;;5050338;28;20297;-70
2021/06/13 08:12:55;;;;;;;8.53;4.13;;;17.00;99.90;;;;;;5049267;28;20245;-71
2021/06/13 08:15:24;;;;;;;9.67;3.97;;;17.10;99.90;;;;;;5048821;28;20603;-71
2021/06/13 08:17:54;;;;;;;9.37;4.47;;;17.20;99.90;;;;;;5049354;28;20242;-72
2021/06/13 08:20:23;;;;;;;10.13;4.20;;;17.30;99.90;;;;;;5048582;28;20232;-72
2021/06/13 08:22:51;;;;;;;8.50;3.87;;;17.40;99.90;;;;;;5050000;28;20239;-71
2021/06/13 08:25:20;;;;;;;11.47;4.27;;;17.30;99.90;;;;;;5054489;28;20289;-71
2021/06/13 08:27:48;;;;;;;9.63;3.97;;;17.30;99.90;;;;;;5048234;28;20240;-71
2021/06/13 08:30:19;;;;;;;7.33;4.40;;;17.40;99.90;;;;;;5050311;28;20754;-71
2021/06/13 08:32:47;;;;;;;7.63;3.90;;;17.60;99.90;;;;;;5049760;28;20307;-71
2021/06/13 08:35:17;;;;;;;10.50;4.40;;;17.60;99.90;;;;;;5050231;28;20239;-72
2021/06/13 08:37:50;;;;;;;10.40;4.00;;;17.60;99.90;;;;;;5049979;28;20277;-71
2021/06/13 08:40:19;;;;;;;9.67;4.10;;;17.60;99.90;;;;;;5050314;28;20730;-72
2021/06/13 08:42:47;;;;;;;8.80;3.97;;;18.40;99.90;;;;;;5049363;28;20630;-72
2021/06/13 08:45:16;;;;;;;8.30;4.20;;;19.00;99.90;;;;;;5049782;28;20630;-72
2021/06/13 08:47:47;;;;;;;9.53;4.20;;;19.00;99.90;;;;;;5048423;28;20686;-72
2021/06/13 08:50:17;;;;;;;8.77;4.43;;;18.70;99.90;;;;;;5047689;28;20292;-72
2021/06/13 08:52:48;;;;;;;9.77;4.43;;;18.10;99.90;;;;;;5048480;28;20244;-71
2021/06/13 08:55:17;;;;;;;11.30;4.90;;;18.00;99.90;;;;;;5049822;28;20263;-72
2021/06/13 08:57:45;;;;;;;8.07;4.30;;;18.00;99.90;;;;;;5049436;28;20670;-71
2021/06/13 09:00:16;;;;;;;12.80;4.80;;;18.20;99.90;;;;;;5049642;28;20705;-72
2021/06/13 09:02:45;;;;;;;12.03;5.00;;;18.80;99.90;;;;;;5047359;28;20248;-71
2021/06/13 09:05:17;;;;;;;10.03;4.13;;;18.80;99.90;;;;;;5049632;28;20241;-72
2021/06/13 09:07:53;;;;;;;11.77;4.43;;;18.70;99.90;;;;;;5052042;28;20238;-72
2021/06/13 09:10:25;;;;;;;7.43;3.90;;;18.60;99.90;;;;;;5029811;28;20243;-72
2021/06/13 09:13:08;;;;;;;10.13;4.37;;;18.70;99.90;;;;;;5033198;28;20265;-72
2021/06/13 09:15:42;;;;;;;8.47;4.30;;;18.60;99.90;;;;;;5049083;28;20234;-72
2021/06/13 09:18:26;;;;;;;13.63;4.30;;;18.60;99.90;;;;;;5048465;28;20288;-71
2021/06/13 09:20:55;;;;;;;8.10;4.10;;;18.60;99.90;;;;;;5049145;28;20244;-72
2021/06/13 09:23:25;;;;;;;9.70;4.30;;;18.50;99.90;;;;;;5049018;28;20602;-72
2021/06/13 09:25:59;;;;;;;10.10;4.60;;;18.60;99.90;;;;;;5039346;28;20261;-71
2021/06/13 09:28:30;;;;;;;9.77;4.30;;;18.50;99.90;;;;;;5047674;28;20288;-71
2021/06/13 09:30:59;;;;;;;9.37;4.10;;;18.30;99.90;;;;;;5049082;28;20229;-71
2021/06/13 09:33:29;;;;;;;8.50;4.00;;;18.40;99.90;;;;;;5048572;28;20616;-71
2021/06/13 09:36:04;;;;;;;8.77;4.33;;;18.30;99.90;;;;;;5048832;28;20251;-71
2021/06/13 09:38:36;;;;;;;9.10;4.20;;;18.40;99.90;;;;;;5048134;28;20236;-71
2021/06/13 09:41:07;;;;;;;9.38;4.15;;;19.40;99.90;;;;;;5048185;28;20485;-71
2021/06/13 09:43:38;;;;;;;10.50;4.07;;;20.10;99.90;;;;;;5048525;28;20242;-71
2021/06/13 09:46:09;;;;;;;8.93;4.40;;;20.10;99.90;;;;;;5048813;28;20644;-71
2021/06/13 09:48:38;;;;;;;9.73;3.93;;;19.90;99.90;;;;;;5048156;28;20319;-71
2021/06/13 09:51:12;;;;;;;10.23;4.10;;;20.40;99.90;;;;;;5047672;28;20250;-71
2021/06/13 09:53:45;;;;;;;7.50;4.20;;;20.60;99.90;;;;;;5048020;28;20273;-70
2021/06/13 09:56:22;;;;;;;9.83;4.83;;;20.30;99.90;;;;;;5047794;28;20242;-71
2021/06/13 09:58:53;;;;;;;9.27;4.00;;;19.70;99.90;;;;;;5456407;22;20243;31
2021/06/13 10:01:27;;;;;;;8.83;4.10;;;19.60;99.90;;;;;;5025929;28;20262;-82
2021/06/13 10:03:56;;;;;;;8.03;4.00;;;20.20;99.90;;;;;;5027359;28;20722;-81
2021/06/13 10:06:29;;;;;;;5.77;3.70;;;20.90;99.90;;;;;;5025877;28;20254;-85
2021/06/13 10:09:00;;;;;;;7.93;3.90;;;20.80;99.90;;;;;;5023077;28;20239;-81
2021/06/13 10:11:28;;;;;;;8.27;4.33;;;20.30;99.90;;;;;;5028058;28;20297;-81
2021/06/13 10:13:59;;;;;;;10.37;4.03;;;20.00;99.90;;;;;;5027859;28;20726;-80
2021/06/13 10:16:30;;;;;;;9.80;4.50;;;20.20;99.90;;;;;;5025850;28;20441;-80
2021/06/13 10:19:10;;;;;;;6.80;3.90;;;21.00;99.90;;;;;;5028442;28;20247;-79
2021/06/13 10:21:41;;;;;;;10.20;3.90;;;21.60;99.90;;;;;;5026179;28;20260;-80
2021/06/13 10:24:13;;;;;;;7.93;4.03;;;20.90;99.90;;;;;;5041792;28;20228;-80
2021/06/13 10:26:44;;;;;;;8.63;4.27;;;20.10;99.90;;;;;;5024851;28;20240;-83
2021/06/13 10:29:14;;;;;;;8.67;4.20;;;20.60;99.90;;;;;;5027320;28;20232;-82
2021/06/13 10:31:43;;;;;;;7.73;4.03;;;20.30;99.90;;;;;;5025705;28;20319;-82
2021/06/13 10:34:12;;;;;;;10.03;4.07;;;20.00;99.90;;;;;;5028686;28;20319;-83
2021/06/13 10:36:41;;;;;;;11.23;4.67;;;20.20;99.90;;;;;;5026928;28;20252;-83
2021/06/13 10:39:13;;;;;;;8.10;4.43;;;20.30;99.90;;;;;;5026865;28;20263;-80
2021/06/13 10:41:42;;;;;;;10.90;4.77;;;20.10;99.90;;;;;;5028066;28;20761;-80
2021/06/13 10:44:13;;;;;;;8.73;4.33;;;20.00;99.90;;;;;;5026080;28;20328;-80
2021/06/13 10:46:44;;;;;;;10.67;4.20;;;20.00;99.90;;;;;;5028263;28;20286;-80
2021/06/13 10:49:32;;;;;;;10.07;4.40;;;20.70;99.90;;;;;;5028754;28;20278;-80
2021/06/13 10:52:08;;;;;;;6.63;4.10;;;21.40;99.90;;;;;;5008330;28;20248;-82
2021/06/13 10:54:40;;;;;;;7.67;3.93;;;21.30;99.90;;;;;;5025726;28;20240;-82
2021/06/13 10:57:36;;;;;;;8.57;4.40;;;21.20;99.90;;;;;;5027804;28;20233;-82
2021/06/13 11:00:26;;;;;;;11.97;4.73;;;20.90;99.90;;;;;;5047433;28;20248;-82
2021/06/13 11:02:59;;;;;;;6.73;3.87;;;20.50;99.90;;;;;;5052534;28;20245;-82
2021/06/13 11:05:41;;;;;;;8.43;4.27;;;21.00;99.90;;;;;;5048631;28;20241;-82
2021/06/13 11:08:11;;;;;;;7.97;3.97;;;21.50;99.90;;;;;;5062250;28;20237;-82
2021/06/13 11:10:42;;;;;;;7.40;4.07;;;20.70;99.90;;;;;;5088270;28;20238;-81
2021/06/13 11:13:14;;;;;;;10.53;4.20;;;21.30;99.90;;;;;;5087258;28;20621;-82
2021/06/13 11:15:46;;;;;;;8.57;5.20;;;22.20;99.90;;;;;;5088649;28;20276;-79
2021/06/13 11:18:28;;;;;;;10.60;4.10;;;22.30;99.90;;;;;;5082228;28;20246;-81
2021/06/13 11:23:57;;;;;;;8.23;3.70;;;21.20;99.90;;;;;;5054369;28;20288;-82
2021/06/13 11:26:38;;;;;;;7.57;3.57;;;21.70;99.90;;;;;;5049027;28;20235;-84
2021/06/13 11:29:09;;;;;;;8.20;4.20;;;21.50;99.90;;;;;;5071572;28;20246;-82
2021/06/13 11:31:52;;;;;;;7.77;3.57;;;22.00;99.90;;;;;;5068480;28;20242;-81
2021/06/13 11:34:22;;;;;;;6.20;4.07;;;22.20;99.90;;;;;;5068516;28;20230;-81
2021/06/13 11:36:51;;;;;;;7.07;4.17;;;21.90;99.90;;;;;;5061469;28;20325;-81
2021/06/13 11:39:53;;;;;;;7.07;4.20;;;21.50;99.90;;;;;;5058533;28;20242;-81
2021/06/13 11:42:23;;;;;;;9.43;4.83;;;21.80;99.90;;;;;;5066414;28;20334;-83
2021/06/13 11:44:54;;;;;;;7.13;4.10;;;22.10;99.90;;;;;;5066363;28;20265;-82
2021/06/13 11:47:35;;;;;;;6.97;4.17;;;21.70;99.90;;;;;;5065927;28;20763;-81
2021/06/13 11:50:09;;;;;;;6.93;4.03;;;21.70;99.90;;;;;;5062417;28;20338;-81
2021/06/13 11:53:06;;;;;;;6.20;3.80;;;21.80;99.90;;;;;;5056946;28;21457;-81
2021/06/13 11:55:56;;;;;;;7.83;4.00;;;22.40;99.90;;;;;;5060769;28;20234;-80
2021/06/13 11:58:28;;;;;;;7.10;4.10;;;22.60;99.90;;;;;;5051022;28;20234;-81
2021/06/13 12:01:00;;;;;;;7.20;4.00;;;22.70;99.90;;;;;;5045355;28;20333;-81
2021/06/13 12:03:30;;;;;;;5.27;3.53;;;22.80;99.90;;;;;;5059937;28;20681;-81
2021/06/13 12:06:07;;;;;;;7.00;3.90;;;22.50;99.90;;;;;;5060354;28;20242;-81
2021/06/13 12:08:42;;;;;;;8.30;3.50;;;22.60;99.90;;;;;;5038905;28;20589;-83
2021/06/13 12:11:32;;;;;;;8.37;3.90;;;22.50;99.90;;;;;;5062811;28;20249;-81
2021/06/13 12:14:24;;;;;;;7.07;3.70;;;22.10;99.90;;;;;;5062453;28;20508;-82
2021/06/13 12:16:54;;;;;;;6.70;3.70;;;21.90;99.90;;;;;;5059653;28;20265;-80
2021/06/13 12:19:29;;;;;;;10.00;4.00;;;22.10;99.90;;;;;;5058788;28;20238;-81
2021/06/13 12:22:14;;;;;;;5.07;3.77;;;21.60;99.90;;;;;;5061532;28;20234;-81
2021/06/13 12:27:25;;;;;;;6.77;3.73;;;21.70;99.90;;;;;;5056785;28;20239;-82
2021/06/13 12:30:01;;;;;;;10.47;4.43;;;21.50;99.90;;;;;;5065179;28;20245;-82
2021/06/13 12:32:31;;;;;;;6.50;3.77;;;21.30;99.90;;;;;;5068853;28;20813;-81
2021/06/13 12:35:08;;;;;;;8.80;4.40;;;21.30;99.90;;;;;;5065177;28;20308;-82
2021/06/13 12:37:39;;;;;;;6.47;3.90;;;21.30;99.90;;;;;;5059475;28;20469;-80
2021/06/13 12:40:10;;;;;;;7.03;3.57;;;21.20;99.90;;;;;;5068713;28;20253;-81
2021/06/13 12:42:40;;;;;;;7.00;4.23;;;21.10;99.90;;;;;;5064564;28;20628;-81
2021/06/13 12:45:11;;;;;;;6.97;3.70;;;21.10;99.90;;;;;;5068807;28;20250;-81
2021/06/13 12:47:41;;;;;;;7.07;3.97;;;21.00;99.90;;;;;;5060894;28;20685;-80
2021/06/13 12:50:12;;;;;;;4.87;3.70;;;20.90;99.90;;;;;;5068664;28;21727;-81
2021/06/13 12:52:49;;;;;;;7.30;4.33;;;20.90;99.90;;;;;;5065541;28;20264;-81
2021/06/13 12:55:19;;;;;;;9.40;4.40;;;21.00;99.90;;;;;;5068674;28;20324;-80
2021/06/13 12:57:50;;;;;;;7.97;3.60;;;20.70;99.90;;;;;;5068259;28;20313;-80
2021/06/13 13:00:21;;;;;;;6.33;4.10;;;20.70;99.90;;;;;;5071383;28;20235;-80
2021/06/13 13:03:09;;;;;;;8.03;3.80;;;20.70;99.90;;;;;;5068957;28;20288;-80
2021/06/13 13:05:38;;;;;;;5.90;3.90;;;20.70;99.90;;;;;;5066034;28;20308;-82
2021/06/13 13:08:16;;;;;;;7.77;3.80;;;20.60;99.90;;;;;;5063841;28;20260;-79